Ana Sayfa
METAR-TAF:

METAR-TAF

Havaalanları :

Amman, Ürdün

Enlem: 31-59N, Boylam: 035-59E, yükseklik: 767 m

Güncel hava durumu gözlemi

Rapor saat 00:00 UTC de 40 dakika önce yapıldı.
Sakin rüzgar
Sıcaklık 20°C
Nem 53%
Basınç 1016 hPa
Görüş mesafesi: 5000 m
Toz Pusu

METAR: OJAM 180000Z 00000KT 5000 HZ NSC 20/10 Q1016 NOSIG

Saat: 03:40 (00:40 UTC)

Tahmin

Rapor saat 22:39 UTC de 2 saat ve 1 dakika önce yapıldı.
Ayın 18'si saat 00 UTC'den ayın 19'si saat 06 UTC'ye kadar geçerli Tahmin
Rüzgar değişken yönden 1 kt
Görüş mesafesi: 6000 m
Olasılık 40%
ayın 18'si saat 02 UTC'den ayın 18'si saat 06 UTC'ye kadar
Görüş mesafesi: 3000 m
Duman
Dönüşüyor
ayın 18'si saat 06 UTC'den ayın 18'si saat 08 UTC'ye kadar
Rüzgar doğudan 10 kt
Görüş mesafesi: 5000 m
Toz Pusu

TAF: OJAM 172239Z 1800/1906 VRB01KT 6000 NSC PROB40 1802/1806 3000 FU BECMG 1806/1808 08010KT 5000 HZ

4.000'den fazla havaalanı için hava durumu gözlemleri ve tahminleri (METAR ve TAF raporları).

Kullanılabilir istasyonlar harita üzerinde sarı ve kırmızı noktalarla gösterilir.

İstasyonun adını görmek için fareyi noktanın üzerinde gezdirin.

Sonrasında hava gözlem ve tahminlerini görmek için tıklayın.

Haritayı değiştirmek için: yaklaştırmak için siyah artı işaretli yeşil düğmeye ve uzaklaştırmak için de eksi işaretli düğmeye hızla tıklayın; bitişik haritalar için yeşil okları kullanın.


METAR-TAF: